Norfolk Ns (Chambers Fld) Airport
KNGU : now visible

Airfield :











YOU CAN JOIN US ON...

 
LOGIN :

Register | Disclaimer

   EN    FR    IT 

 









Legend :    VFR   Marginal VFR   IFR   Intensive IFR   Very Intensive IFR
Visi :
Ceiling :
>= 8 km
>= 3000ft
5 to 8 km
1000 to 3000 ft
1500m to 5 km
500 to 1000 ft
800 to 1500m
200 to 500 ft
< 800m
< 200 ft
Symbols :   Thunderstorms  Fog  Heavy snow  Heavy precipitations  Wind > 20 kt






- Airport Elevation : 17 ft


KNGU - Norfolk Ns (Chambers Fld)

CURRENT METAR :
  • 250259Z 04012G20KT 3SM -RA BR BKN007 OVC014 16/14 A3024 RMK AO2 SLP240 P0001 60005 T01610139 51015 $

EXPIRED METARs :
  • 250159Z 05011KT 5SM -RA BR BKN007 OVC011 16/14 A3023 RMK AO2 SLP236 P0002 T01610139 $
  • 250111Z 05013KT 4SM -RA BR OVC006 A3021 RMK AO2 CIG 004V010 P0000 $

TAF TAF KNGU
Valid from the 24 at 23:00 until the 25 at 23:00 UTC


2423/2523 05018G25KT 6000 BR VCSH OVC008 QNH3010INS
TEMPO 2501/2507 3200 -RA BR OVC004
FM250700 06018G25KT 4800 RA BR OVC006 QNH3014INS
TEMPO 2508/2515 1600 SHRA BR OVC004
FM251500 06020G30KT 3200 SHRA BR OVC005 QNH3019INS T15/2508Z T19/2519Z FN20067
KZDC FIR / North America



MET'MAP, your aeronautical weather chart ! - Copyright ORBIFLY December 2007 - Disclaimer

ORBIFLY MET'MAP TEAM :

Programming & Development : Alexandra Zaïnal
Original concept : Baudouin d'Aumeries
Technical & hardware support : Manuel Goepfert
Assistance : Marc-Olivier Méhu

Contact : metmap@orbifly.com




SOURCES & CREDITS :

   NOAA       Earth
Advisory